createdAt,value
2018-02-22T00:00:10.246Z,0
2018-02-22T00:01:19.977Z,0
2018-02-22T00:02:29.783Z,0
2018-02-22T00:03:39.441Z,0
2018-02-22T00:04:48.740Z,0
2018-02-22T00:05:58.225Z,0
2018-02-22T00:07:07.467Z,0
2018-02-22T00:08:17.226Z,0
2018-02-22T00:09:26.987Z,0
2018-02-22T00:10:36.437Z,0
2018-02-22T00:11:46.251Z,0
2018-02-22T00:12:56.361Z,0
2018-02-22T00:14:05.646Z,0
2018-02-22T00:15:15.372Z,0
2018-02-22T00:16:25.275Z,0
2018-02-22T00:17:34.746Z,0
2018-02-22T00:18:43.977Z,0
2018-02-22T00:19:53.162Z,0
2018-02-22T00:21:02.684Z,0
2018-02-22T00:22:12.141Z,0
2018-02-22T00:23:21.864Z,0
2018-02-22T00:24:31.696Z,0
2018-02-22T00:25:41.309Z,0
2018-02-22T00:26:51.390Z,0
2018-02-22T00:28:01.479Z,0
2018-02-22T00:29:10.706Z,0
2018-02-22T00:30:20.242Z,0
2018-02-22T00:31:30.309Z,0
2018-02-22T00:32:40.148Z,0
2018-02-22T00:33:49.676Z,0
2018-02-22T00:34:59.420Z,0
2018-02-22T00:36:09.632Z,0
2018-02-22T00:37:18.939Z,0
2018-02-22T00:38:28.930Z,0
2018-02-22T00:39:38.751Z,0
2018-02-22T00:40:48.603Z,0
2018-02-22T00:41:58.379Z,0
2018-02-22T00:43:08.247Z,0
2018-02-22T00:44:18.413Z,0
2018-02-22T00:45:27.966Z,0
2018-02-22T00:46:37.956Z,0
2018-02-22T00:47:47.673Z,0
2018-02-22T00:48:57.662Z,0
2018-02-22T00:50:07.438Z,0
2018-02-22T00:51:17.159Z,0
2018-02-22T00:52:27.145Z,0
2018-02-22T00:53:36.858Z,0
2018-02-22T00:54:45.788Z,0
2018-02-22T00:55:55.506Z,0
2018-02-22T00:57:05.268Z,0
2018-02-22T00:58:14.997Z,0
2018-02-22T00:59:24.566Z,0
2018-02-22T01:00:33.776Z,0
2018-02-22T01:01:43.496Z,0
2018-02-22T01:02:53.301Z,0
2018-02-22T01:04:03.314Z,0
2018-02-22T01:05:13.096Z,0
2018-02-22T01:06:22.577Z,0
2018-02-22T01:07:32.594Z,0
2018-02-22T01:08:41.807Z,0
2018-02-22T01:09:51.612Z,0
2018-02-22T01:11:01.361Z,0
2018-02-22T01:12:11.362Z,0
2018-02-22T01:13:20.840Z,0
2018-02-22T01:14:30.828Z,0
2018-02-22T01:15:40.287Z,0
2018-02-22T01:16:50.033Z,0
2018-02-22T01:17:59.758Z,0
2018-02-22T01:19:09.478Z,0
2018-02-22T01:20:18.954Z,0
2018-02-22T01:21:28.429Z,0
2018-02-22T01:22:38.154Z,0
2018-02-22T01:23:48.232Z,0
2018-02-22T01:24:57.992Z,0
2018-02-22T01:26:07.440Z,0
2018-02-22T01:27:17.435Z,0
2018-02-22T01:28:27.255Z,0
2018-02-22T01:29:37.029Z,0
2018-02-22T01:30:46.750Z,0
2018-02-22T01:31:56.740Z,0
2018-02-22T01:33:06.203Z,0
2018-02-22T01:34:15.954Z,0
2018-02-22T01:35:25.941Z,0
2018-02-22T01:36:35.937Z,0
2018-02-22T01:37:45.658Z,0
2018-02-22T01:38:55.386Z,0
2018-02-22T01:40:04.639Z,0
2018-02-22T01:41:14.680Z,0
2018-02-22T01:42:24.679Z,0
2018-02-22T01:43:34.789Z,0
2018-02-22T01:44:44.513Z,0
2018-02-22T01:45:53.978Z,0
2018-02-22T01:47:03.967Z,0
2018-02-22T01:48:13.420Z,0
2018-02-22T01:49:22.866Z,0
2018-02-22T01:50:32.653Z,0
2018-02-22T01:51:42.124Z,0
2018-02-22T01:52:52.137Z,0
2018-02-22T01:54:01.852Z,0
2018-02-22T01:55:11.316Z,0
2018-02-22T01:56:20.769Z,0
2018-02-22T01:57:30.503Z,0
2018-02-22T01:58:39.705Z,0
2018-02-22T01:59:49.246Z,0
2018-02-22T02:00:59.301Z,0
2018-02-22T02:02:09.028Z,0
2018-02-22T02:03:18.483Z,0
2018-02-22T02:04:28.479Z,0
2018-02-22T02:05:37.933Z,0
2018-02-22T02:06:47.164Z,0
2018-02-22T02:07:56.352Z,0
2018-02-22T02:09:06.074Z,0
2018-02-22T02:10:15.794Z,0
2018-02-22T02:11:25.529Z,0
2018-02-22T02:12:34.463Z,0
2018-02-22T02:13:44.460Z,0
2018-02-22T02:14:54.166Z,0
2018-02-22T02:16:04.182Z,0
2018-02-22T02:17:13.933Z,0
2018-02-22T02:18:23.685Z,0
2018-02-22T02:19:33.431Z,0
2018-02-22T02:20:43.289Z,0
2018-02-22T02:21:52.837Z,0
2018-02-22T02:23:02.567Z,0
2018-02-22T02:24:12.288Z,0
2018-02-22T02:25:22.022Z,0
2018-02-22T02:26:31.737Z,0
2018-02-22T02:27:41.214Z,0
2018-02-22T02:28:50.936Z,0
2018-02-22T02:30:00.660Z,0
2018-02-22T02:31:10.450Z,0
2018-02-22T02:32:20.523Z,0
2018-02-22T02:33:30.296Z,0
2018-02-22T02:34:40.339Z,0
2018-02-22T02:35:50.083Z,0
2018-02-22T02:36:59.631Z,0
2018-02-22T02:38:09.662Z,0
2018-02-22T02:39:19.445Z,0
2018-02-22T02:40:28.938Z,0
2018-02-22T02:41:38.407Z,0
2018-02-22T02:42:48.160Z,0
2018-02-22T02:43:58.154Z,0
2018-02-22T02:45:07.893Z,0
2018-02-22T02:46:17.640Z,0
2018-02-22T02:47:27.384Z,0
2018-02-22T02:48:37.212Z,0
2018-02-22T02:49:46.659Z,0
2018-02-22T02:50:56.663Z,0
2018-02-22T02:52:06.664Z,0
2018-02-22T02:53:16.742Z,0
2018-02-22T02:54:26.728Z,0
2018-02-22T02:55:36.506Z,0
2018-02-22T02:56:46.233Z,0
2018-02-22T02:57:55.968Z,0
2018-02-22T02:59:05.698Z,0
2018-02-22T03:00:16.047Z,0
2018-02-22T03:01:26.039Z,0
2018-02-22T03:02:36.037Z,0
2018-02-22T03:03:46.027Z,0
2018-02-22T03:04:55.747Z,0
2018-02-22T03:06:05.243Z,0
2018-02-22T03:07:14.966Z,0
2018-02-22T03:08:24.953Z,0
2018-02-22T03:09:34.401Z,0
2018-02-22T03:10:43.341Z,0
2018-02-22T03:11:53.099Z,0
2018-02-22T03:13:03.089Z,0
2018-02-22T03:14:12.847Z,0
2018-02-22T03:15:22.563Z,0
2018-02-22T03:16:32.024Z,0
2018-02-22T03:17:41.507Z,0
2018-02-22T03:18:51.229Z,0
2018-02-22T03:20:00.689Z,0
2018-02-22T03:21:10.448Z,0
2018-02-22T03:22:19.967Z,0
2018-02-22T03:23:29.429Z,0
2018-02-22T03:24:39.215Z,0
2018-02-22T03:25:48.947Z,0
2018-02-22T03:26:58.942Z,0
2018-02-22T03:28:08.938Z,0
2018-02-22T03:29:18.963Z,0
2018-02-22T03:30:28.771Z,0
2018-02-22T03:31:38.809Z,0
2018-02-22T03:32:48.547Z,0
2018-02-22T03:33:58.356Z,0
2018-02-22T03:35:08.089Z,0
2018-02-22T03:36:17.857Z,0
2018-02-22T03:37:27.576Z,0
2018-02-22T03:38:37.025Z,0
2018-02-22T03:39:46.741Z,0
2018-02-22T03:40:56.195Z,0
2018-02-22T03:42:06.171Z,0
2018-02-22T03:43:16.157Z,0
2018-02-22T03:44:25.619Z,0
2018-02-22T03:45:35.602Z,0
2018-02-22T03:46:45.625Z,0
2018-02-22T03:47:55.081Z,0
2018-02-22T03:49:04.923Z,0
2018-02-22T03:50:14.649Z,0
2018-02-22T03:51:24.635Z,0
2018-02-22T03:52:34.086Z,0
2018-02-22T03:53:43.925Z,0
2018-02-22T03:54:53.685Z,0
2018-02-22T03:56:02.884Z,0
2018-02-22T03:57:12.884Z,0
2018-02-22T03:58:22.878Z,0
2018-02-22T03:59:32.601Z,0
2018-02-22T04:00:41.864Z,0
2018-02-22T04:01:51.444Z,0
2018-02-22T04:03:01.437Z,0
2018-02-22T04:04:10.624Z,0
2018-02-22T04:05:20.354Z,0
2018-02-22T04:06:30.074Z,0
2018-02-22T04:07:39.802Z,0
2018-02-22T04:08:49.053Z,0
2018-02-22T04:09:58.770Z,0
2018-02-22T04:11:08.787Z,0
2018-02-22T04:12:18.508Z,0
2018-02-22T04:13:27.960Z,0
2018-02-22T04:14:37.689Z,0
2018-02-22T04:15:47.148Z,0
2018-02-22T04:16:56.861Z,0
2018-02-22T04:18:06.055Z,0
2018-02-22T04:19:16.034Z,0
2018-02-22T04:20:26.034Z,0
2018-02-22T04:21:36.011Z,0
2018-02-22T04:22:45.895Z,0
2018-02-22T04:23:55.613Z,0
2018-02-22T04:25:05.328Z,0
2018-02-22T04:26:14.508Z,0
2018-02-22T04:27:24.492Z,0
2018-02-22T04:28:33.945Z,0
2018-02-22T04:29:43.395Z,0
2018-02-22T04:30:53.379Z,0
2018-02-22T04:32:03.091Z,0
2018-02-22T04:33:12.813Z,0
2018-02-22T04:34:22.796Z,0
2018-02-22T04:35:32.245Z,0
2018-02-22T04:36:41.320Z,0
2018-02-22T04:37:50.512Z,0
2018-02-22T04:38:59.956Z,0
2018-02-22T04:40:09.670Z,0
2018-02-22T04:41:19.386Z,0
2018-02-22T04:42:29.090Z,0
2018-02-22T04:43:38.804Z,0
2018-02-22T04:44:48.517Z,0
2018-02-22T04:45:58.224Z,0
2018-02-22T04:47:07.940Z,0
2018-02-22T04:48:17.667Z,0
2018-02-22T04:49:27.119Z,0
2018-02-22T04:50:37.178Z,0
2018-02-22T04:51:46.897Z,0
2018-02-22T04:52:56.350Z,0
2018-02-22T04:54:05.798Z,0
2018-02-22T04:55:15.513Z,0
2018-02-22T04:56:25.495Z,0
2018-02-22T04:57:35.227Z,0
2018-02-22T04:58:44.676Z,0
2018-02-22T04:59:53.877Z,0
2018-02-22T05:01:03.852Z,0
2018-02-22T05:02:13.339Z,0
2018-02-22T05:03:23.320Z,0
2018-02-22T05:04:32.770Z,0
2018-02-22T05:05:42.758Z,0
2018-02-22T05:06:51.936Z,0
2018-02-22T05:08:01.664Z,0
2018-02-22T05:09:11.380Z,0
2018-02-22T05:10:21.101Z,0
2018-02-22T05:11:30.824Z,0
2018-02-22T05:12:40.275Z,0
2018-02-22T05:13:49.461Z,0
2018-02-22T05:14:58.929Z,0
2018-02-22T05:16:08.110Z,0
2018-02-22T05:17:17.827Z,0
2018-02-22T05:18:27.808Z,0
2018-02-22T05:19:37.529Z,0
2018-02-22T05:20:47.521Z,0
2018-02-22T05:21:56.988Z,0
2018-02-22T05:23:06.706Z,0
2018-02-22T05:24:16.434Z,0
2018-02-22T05:25:26.150Z,0
2018-02-22T05:26:35.597Z,0
2018-02-22T05:27:45.584Z,0
2018-02-22T05:28:55.572Z,0
2018-02-22T05:30:04.759Z,0
2018-02-22T05:31:14.206Z,0
2018-02-22T05:32:23.663Z,0
2018-02-22T05:33:33.125Z,0
2018-02-22T05:34:42.838Z,0
2018-02-22T05:35:52.281Z,0
2018-02-22T05:37:02.468Z,0
2018-02-22T05:38:12.182Z,0
2018-02-22T05:39:22.168Z,0
2018-02-22T05:40:31.884Z,0
2018-02-22T05:41:41.872Z,0
2018-02-22T05:42:51.865Z,0
2018-02-22T05:44:01.578Z,0
2018-02-22T05:45:11.567Z,0
2018-02-22T05:46:21.025Z,0
2018-02-22T05:47:30.740Z,0
2018-02-22T05:48:40.457Z,0
2018-02-22T05:49:50.170Z,0
2018-02-22T05:50:59.884Z,0
2018-02-22T05:52:09.366Z,0
2018-02-22T05:53:18.825Z,0
2018-02-22T05:54:28.810Z,0
2018-02-22T05:55:38.265Z,0
2018-02-22T05:56:47.713Z,0
2018-02-22T05:57:57.428Z,0
2018-02-22T05:59:07.406Z,0
2018-02-22T06:00:16.860Z,0
2018-02-22T06:01:26.048Z,0
2018-02-22T06:02:36.135Z,0
2018-02-22T06:03:45.889Z,0
2018-02-22T06:04:55.605Z,0
2018-02-22T06:06:04.796Z,0
2018-02-22T06:07:14.515Z,0
2018-02-22T06:08:24.613Z,0
2018-02-22T06:09:34.381Z,0
2018-02-22T06:10:44.103Z,0
2018-02-22T06:11:53.560Z,0
2018-02-22T06:13:02.479Z,0
2018-02-22T06:14:11.663Z,0
2018-02-22T06:15:21.383Z,0
2018-02-22T06:16:30.576Z,0
2018-02-22T06:17:40.297Z,0
2018-02-22T06:18:49.482Z,0
2018-02-22T06:19:59.280Z,0
2018-02-22T06:21:08.808Z,0
2018-02-22T06:22:18.804Z,0
2018-02-22T06:23:28.323Z,0
2018-02-22T06:24:37.775Z,0
2018-02-22T06:25:47.251Z,0
2018-02-22T06:26:56.437Z,0
2018-02-22T06:28:06.186Z,0
2018-02-22T06:29:15.423Z,0
2018-02-22T06:30:25.138Z,0
2018-02-22T06:31:35.119Z,0
2018-02-22T06:32:44.615Z,0
2018-02-22T06:33:54.382Z,0
2018-02-22T06:35:04.109Z,5
2018-02-22T06:36:13.827Z,5
2018-02-22T06:37:23.282Z,5
2018-02-22T06:38:33.311Z,5
2018-02-22T06:39:42.851Z,5
2018-02-22T06:40:52.046Z,5
2018-02-22T06:42:01.798Z,5
2018-02-22T06:43:11.324Z,5
2018-02-22T06:44:21.319Z,10
2018-02-22T06:45:30.772Z,10
2018-02-22T06:46:40.492Z,10
2018-02-22T06:47:50.225Z,10
2018-02-22T06:48:59.994Z,10
2018-02-22T06:50:09.746Z,10
2018-02-22T06:51:19.204Z,15
2018-02-22T06:52:29.016Z,15
2018-02-22T06:53:38.477Z,15
2018-02-22T06:54:47.942Z,15
2018-02-22T06:55:57.694Z,15
2018-02-22T06:57:07.476Z,15
2018-02-22T06:58:16.660Z,15
2018-02-22T06:59:26.120Z,20
2018-02-22T07:00:35.848Z,20
2018-02-22T07:01:45.655Z,20
2018-02-22T07:02:55.370Z,20
2018-02-22T07:04:04.832Z,20
2018-02-22T07:05:14.810Z,20
2018-02-22T07:06:24.524Z,25
2018-02-22T07:07:34.512Z,25
2018-02-22T07:08:44.254Z,25
2018-02-22T07:09:53.709Z,25
2018-02-22T07:11:03.419Z,25
2018-02-22T07:12:13.130Z,25
2018-02-22T07:13:23.122Z,30
2018-02-22T07:14:32.922Z,30
2018-02-22T07:15:42.686Z,30
2018-02-22T07:16:52.728Z,30
2018-02-22T07:18:01.965Z,30
2018-02-22T07:19:12.017Z,30
2018-02-22T07:20:22.075Z,30
2018-02-22T07:21:31.555Z,35
2018-02-22T07:22:41.330Z,35
2018-02-22T07:23:51.354Z,35
2018-02-22T07:25:00.849Z,35
2018-02-22T07:26:10.864Z,35
2018-02-22T07:27:20.324Z,35
2018-02-22T07:28:29.529Z,35
2018-02-22T07:29:38.980Z,40
2018-02-22T07:30:48.706Z,40
2018-02-22T07:31:58.425Z,40
2018-02-22T07:33:08.144Z,40
2018-02-22T07:34:17.972Z,40
2018-02-22T07:35:27.452Z,40
2018-02-22T07:36:37.197Z,40
2018-02-22T07:37:46.952Z,40
2018-02-22T07:38:56.519Z,45
2018-02-22T07:40:06.003Z,45
2018-02-22T07:41:15.798Z,45
2018-02-22T07:42:25.512Z,45
2018-02-22T07:43:34.960Z,45
2018-02-22T07:44:44.708Z,45
2018-02-22T07:45:54.695Z,45
2018-02-22T07:47:04.145Z,45
2018-02-22T07:48:13.861Z,45
2018-02-22T07:49:23.574Z,50
2018-02-22T07:50:33.554Z,50
2018-02-22T07:51:43.032Z,50
2018-02-22T07:52:51.958Z,50
2018-02-22T07:54:00.874Z,50
2018-02-22T07:55:10.600Z,50
2018-02-22T07:56:20.053Z,50
2018-02-22T07:57:29.780Z,55
2018-02-22T07:58:38.968Z,55
2018-02-22T07:59:48.954Z,55
2018-02-22T08:00:58.400Z,55
2018-02-22T08:02:07.856Z,55
2018-02-22T08:03:17.577Z,55
2018-02-22T08:04:27.307Z,55
2018-02-22T08:05:36.510Z,55
2018-02-22T08:06:46.235Z,55
2018-02-22T08:07:56.226Z,55
2018-02-22T08:09:06.007Z,55
2018-02-22T08:10:16.003Z,55
2018-02-22T08:11:25.457Z,60
2018-02-22T08:12:34.640Z,60
2018-02-22T08:13:44.099Z,60
2018-02-22T08:14:53.809Z,60
2018-02-22T08:16:03.336Z,60
2018-02-22T08:17:13.067Z,60
2018-02-22T08:18:23.052Z,60
2018-02-22T08:19:32.779Z,60
2018-02-22T08:20:42.521Z,60
2018-02-22T08:21:52.507Z,60
2018-02-22T08:23:02.223Z,60
2018-02-22T08:24:11.958Z,60
2018-02-22T08:25:21.674Z,60
2018-02-22T08:26:30.909Z,60
2018-02-22T08:27:40.636Z,60
2018-02-22T08:28:50.357Z,60
2018-02-22T08:30:00.343Z,60
2018-02-22T08:31:10.064Z,65
2018-02-22T08:32:20.079Z,60
2018-02-22T08:33:29.522Z,65
2018-02-22T08:34:39.239Z,65
2018-02-22T08:35:48.690Z,65
2018-02-22T08:36:58.407Z,65
2018-02-22T08:38:07.633Z,65
2018-02-22T08:39:17.466Z,65
2018-02-22T08:40:27.124Z,65
2018-02-22T08:41:37.125Z,65
2018-02-22T08:42:46.419Z,65
2018-02-22T08:43:56.400Z,65
2018-02-22T08:45:05.885Z,65
2018-02-22T08:46:15.610Z,65
2018-02-22T08:47:25.359Z,65
2018-02-22T08:48:35.448Z,65
2018-02-22T08:49:45.175Z,65
2018-02-22T08:50:54.623Z,70
2018-02-22T08:52:04.683Z,70
2018-02-22T08:53:14.406Z,70
2018-02-22T08:54:24.118Z,70
2018-02-22T08:55:33.827Z,70
2018-02-22T08:56:43.009Z,70
2018-02-22T08:57:52.735Z,70
2018-02-22T08:59:02.715Z,70
2018-02-22T09:00:12.440Z,70
2018-02-22T09:01:22.435Z,70
2018-02-22T09:02:32.474Z,70
2018-02-22T09:03:41.927Z,70
2018-02-22T09:04:51.644Z,75
2018-02-22T09:06:01.635Z,75
2018-02-22T09:07:11.656Z,75
2018-02-22T09:08:21.481Z,75
2018-02-22T09:09:30.953Z,75
2018-02-22T09:10:40.708Z,75
2018-02-22T09:11:49.896Z,75
2018-02-22T09:12:59.659Z,75
2018-02-22T09:14:09.385Z,75
2018-02-22T09:15:19.369Z,75
2018-02-22T09:16:29.352Z,75
2018-02-22T09:17:39.071Z,75
2018-02-22T09:18:48.797Z,75
2018-02-22T09:19:58.519Z,75
2018-02-22T09:21:07.443Z,75
2018-02-22T09:22:17.173Z,75
2018-02-22T09:23:26.890Z,75
2018-02-22T09:24:36.612Z,75
2018-02-22T09:25:46.594Z,75
2018-02-22T09:26:56.040Z,75
2018-02-22T09:28:06.036Z,75
2018-02-22T09:29:15.547Z,75
2018-02-22T09:30:25.581Z,75
2018-02-22T09:31:35.300Z,75
2018-02-22T09:32:44.496Z,75
2018-02-22T09:33:54.480Z,75
2018-02-22T09:35:04.203Z,80
2018-02-22T09:36:14.188Z,80
2018-02-22T09:37:23.696Z,80
2018-02-22T09:38:33.157Z,80
2018-02-22T09:39:42.886Z,80
2018-02-22T09:40:52.362Z,80
2018-02-22T09:42:02.089Z,80
2018-02-22T09:43:11.538Z,80
2018-02-22T09:44:21.444Z,75
2018-02-22T09:45:30.909Z,80
2018-02-22T09:46:40.519Z,80
2018-02-22T09:47:50.569Z,80
2018-02-22T09:49:00.572Z,80
2018-02-22T09:50:09.763Z,80
2018-02-22T09:51:19.511Z,80
2018-02-22T09:52:29.538Z,80
2018-02-22T09:53:38.991Z,80
2018-02-22T09:54:48.715Z,85
2018-02-22T09:55:57.960Z,85
2018-02-22T09:57:07.431Z,85
2018-02-22T09:58:16.887Z,90
2018-02-22T09:59:26.340Z,85
2018-02-22T10:00:36.079Z,90
2018-02-22T10:01:45.798Z,90
2018-02-22T10:02:55.516Z,90
2018-02-22T10:04:05.238Z,90
2018-02-22T10:05:15.232Z,90
2018-02-22T10:06:25.451Z,90
2018-02-22T10:07:35.217Z,85
2018-02-22T10:08:45.254Z,85
2018-02-22T10:09:54.706Z,90
2018-02-22T10:11:04.690Z,90
2018-02-22T10:12:14.153Z,90
2018-02-22T10:13:24.141Z,90
2018-02-22T10:14:33.910Z,90
2018-02-22T10:15:43.370Z,90
2018-02-22T10:16:52.659Z,90
2018-02-22T10:18:02.395Z,85
2018-02-22T10:19:12.171Z,95
2018-02-22T10:20:21.919Z,90
2018-02-22T10:21:31.632Z,90
2018-02-22T10:22:40.821Z,90
2018-02-22T10:23:50.010Z,90
2018-02-22T10:24:59.466Z,95
2018-02-22T10:26:09.217Z,95
2018-02-22T10:27:19.057Z,95
2018-02-22T10:28:28.791Z,95
2018-02-22T10:29:38.657Z,95
2018-02-22T10:30:48.206Z,95
2018-02-22T10:31:57.926Z,95
2018-02-22T10:33:07.878Z,95
2018-02-22T10:34:18.018Z,95
2018-02-22T10:35:27.283Z,95
2018-02-22T10:36:36.750Z,95
2018-02-22T10:37:46.740Z,95
2018-02-22T10:38:56.974Z,95
2018-02-22T10:40:06.446Z,95
2018-02-22T10:41:15.910Z,95
2018-02-22T10:42:25.377Z,95
2018-02-22T10:43:34.930Z,95
2018-02-22T10:44:44.520Z,95
2018-02-22T10:45:53.715Z,100
2018-02-22T10:47:02.921Z,100
2018-02-22T10:48:12.704Z,100
2018-02-22T10:49:22.583Z,100
2018-02-22T10:50:32.587Z,105
2018-02-22T10:51:42.596Z,105
2018-02-22T10:52:52.073Z,100
2018-02-22T10:54:01.543Z,105
2018-02-22T10:55:11.272Z,105
2018-02-22T10:56:20.760Z,105
2018-02-22T10:57:30.278Z,105
2018-02-22T10:58:39.745Z,105
2018-02-22T10:59:49.211Z,105
2018-02-22T11:00:58.406Z,105
2018-02-22T11:02:08.415Z,105
2018-02-22T11:03:17.889Z,110
2018-02-22T11:04:27.882Z,110
2018-02-22T11:05:37.354Z,110
2018-02-22T11:06:46.807Z,110
2018-02-22T11:07:56.541Z,115
2018-02-22T11:09:06.554Z,110
2018-02-22T11:10:16.544Z,85
2018-02-22T11:11:25.731Z,115
2018-02-22T11:12:35.797Z,110
2018-02-22T11:13:45.540Z,80
2018-02-22T11:14:55.258Z,110
2018-02-22T11:16:04.716Z,110
2018-02-22T11:17:14.645Z,110
2018-02-22T11:18:24.114Z,110
2018-02-22T11:19:33.340Z,115
2018-02-22T11:20:42.792Z,110
2018-02-22T11:21:52.320Z,110
2018-02-22T11:23:01.781Z,90
2018-02-22T11:24:11.503Z,115
2018-02-22T11:25:21.224Z,110
2018-02-22T11:26:30.683Z,120
2018-02-22T11:27:40.131Z,110
2018-02-22T11:28:49.318Z,110
2018-02-22T11:29:58.778Z,120
2018-02-22T11:31:08.494Z,115
2018-02-22T11:32:18.215Z,115
2018-02-22T11:33:27.780Z,120
2018-02-22T11:34:37.508Z,120
2018-02-22T11:35:47.224Z,115
2018-02-22T11:36:57.209Z,120
2018-02-22T11:38:06.933Z,110
2018-02-22T11:39:16.924Z,85
2018-02-22T11:40:26.967Z,100
2018-02-22T11:41:36.739Z,120
2018-02-22T11:42:46.465Z,120
2018-02-22T11:43:55.654Z,115
2018-02-22T11:45:05.681Z,120
2018-02-22T11:46:15.676Z,100
2018-02-22T11:47:25.671Z,120
2018-02-22T11:48:35.657Z,115
2018-02-22T11:49:45.112Z,115
2018-02-22T11:50:54.574Z,120
2018-02-22T11:52:04.328Z,115
2018-02-22T11:53:14.321Z,120
2018-02-22T11:54:24.310Z,120
2018-02-22T11:55:33.771Z,120
2018-02-22T11:56:43.217Z,110
2018-02-22T11:57:52.682Z,120
2018-02-22T11:59:01.873Z,120
2018-02-22T12:00:11.858Z,120
2018-02-22T12:01:21.574Z,95
2018-02-22T12:02:31.290Z,120
2018-02-22T12:03:40.752Z,120
2018-02-22T12:04:50.210Z,125
2018-02-22T12:05:59.668Z,120
2018-02-22T12:07:09.675Z,120
2018-02-22T12:08:19.134Z,120
2018-02-22T12:09:28.886Z,105
2018-02-22T12:10:38.874Z,120
2018-02-22T12:11:48.074Z,120
2018-02-22T12:12:57.538Z,120
2018-02-22T12:14:07.300Z,120
2018-02-22T12:15:17.283Z,120
2018-02-22T12:16:26.513Z,120
2018-02-22T12:17:36.320Z,120
2018-02-22T12:18:46.083Z,120
2018-02-22T12:19:55.278Z,120
2018-02-22T12:21:05.011Z,120
2018-02-22T12:22:15.001Z,120
2018-02-22T12:23:24.266Z,120
2018-02-22T12:24:34.375Z,120
2018-02-22T12:25:44.099Z,120
2018-02-22T12:26:54.098Z,120
2018-02-22T12:28:03.551Z,120
2018-02-22T12:29:13.292Z,120
2018-02-22T12:30:23.353Z,120
2018-02-22T12:31:33.098Z,125
2018-02-22T12:32:43.114Z,120
2018-02-22T12:33:52.037Z,120
2018-02-22T12:35:02.045Z,125
2018-02-22T12:36:11.858Z,125
2018-02-22T12:37:21.913Z,125
2018-02-22T12:38:31.427Z,125
2018-02-22T12:39:41.233Z,125
2018-02-22T12:40:50.688Z,125
2018-02-22T12:42:00.414Z,125
2018-02-22T12:43:10.139Z,125
2018-02-22T12:44:19.880Z,125
2018-02-22T12:45:29.659Z,125
2018-02-22T12:46:39.138Z,125
2018-02-22T12:47:48.890Z,130
2018-02-22T12:48:58.685Z,130
2018-02-22T12:50:08.137Z,125
2018-02-22T12:51:18.134Z,130
2018-02-22T12:52:27.633Z,130
2018-02-22T12:53:37.126Z,130
2018-02-22T12:54:47.923Z,130
2018-02-22T12:55:57.690Z,130
2018-02-22T12:57:07.693Z,130
2018-02-22T12:58:17.763Z,130
2018-02-22T12:59:27.574Z,130
2018-02-22T13:00:37.332Z,130
2018-02-22T13:01:46.866Z,130
2018-02-22T13:02:56.394Z,130
2018-02-22T13:04:05.846Z,130
2018-02-22T13:05:15.333Z,130
2018-02-22T13:06:24.806Z,130
2018-02-22T13:07:34.694Z,130
2018-02-22T13:08:44.217Z,135
2018-02-22T13:09:53.675Z,130
2018-02-22T13:11:02.985Z,135
2018-02-22T13:12:12.489Z,135
2018-02-22T13:13:22.239Z,130
2018-02-22T13:14:31.766Z,135
2018-02-22T13:15:41.762Z,135
2018-02-22T13:16:51.247Z,135
2018-02-22T13:18:00.973Z,135
2018-02-22T13:19:10.460Z,135
2018-02-22T13:20:20.237Z,135
2018-02-22T13:21:29.525Z,135
2018-02-22T13:22:39.038Z,135
2018-02-22T13:23:48.765Z,135
2018-02-22T13:24:57.948Z,135
2018-02-22T13:26:07.133Z,135
2018-02-22T13:27:16.359Z,140
2018-02-22T13:28:26.407Z,135
2018-02-22T13:29:36.129Z,135
2018-02-22T13:30:45.866Z,135
2018-02-22T13:31:55.849Z,135
2018-02-22T13:33:05.040Z,135
2018-02-22T13:34:14.770Z,135
2018-02-22T13:35:24.494Z,135
2018-02-22T13:36:33.984Z,130
2018-02-22T13:37:43.179Z,130
2018-02-22T13:38:52.650Z,135
2018-02-22T13:40:02.369Z,130
2018-02-22T13:41:11.824Z,130
2018-02-22T13:42:21.290Z,130
2018-02-22T13:43:30.476Z,130
2018-02-22T13:44:39.987Z,130
2018-02-22T13:45:49.989Z,130
2018-02-22T13:46:59.764Z,130
2018-02-22T13:48:09.503Z,130
2018-02-22T13:49:19.230Z,135
2018-02-22T13:50:29.214Z,135
2018-02-22T13:51:38.971Z,135
2018-02-22T13:52:49.030Z,135
2018-02-22T13:53:58.526Z,135
2018-02-22T13:55:08.032Z,130
2018-02-22T13:56:18.048Z,130
2018-02-22T13:57:27.804Z,130
2018-02-22T13:58:37.561Z,130
2018-02-22T13:59:47.553Z,130
2018-02-22T14:00:57.022Z,130
2018-02-22T14:02:06.773Z,135
2018-02-22T14:03:15.964Z,130
2018-02-22T14:04:25.520Z,130
2018-02-22T14:05:35.280Z,130
2018-02-22T14:06:44.798Z,130
2018-02-22T14:07:54.830Z,130
2018-02-22T14:09:04.557Z,130
2018-02-22T14:10:13.483Z,130
2018-02-22T14:11:23.490Z,130
2018-02-22T14:12:33.484Z,130
2018-02-22T14:13:42.677Z,130
2018-02-22T14:14:52.137Z,130
2018-02-22T14:16:01.061Z,130
2018-02-22T14:17:10.557Z,135
2018-02-22T14:18:20.288Z,130
2018-02-22T14:19:29.746Z,135
2018-02-22T14:20:39.758Z,135
2018-02-22T14:21:49.222Z,135
2018-02-22T14:22:58.720Z,130
2018-02-22T14:24:08.191Z,130
2018-02-22T14:25:17.704Z,130
2018-02-22T14:26:27.195Z,135
2018-02-22T14:27:36.651Z,130
2018-02-22T14:28:46.639Z,130
2018-02-22T14:29:56.738Z,130
2018-02-22T14:31:06.741Z,130
2018-02-22T14:32:15.977Z,125
2018-02-22T14:33:25.749Z,130
2018-02-22T14:34:35.475Z,125
2018-02-22T14:35:45.002Z,130
2018-02-22T14:36:54.728Z,125
2018-02-22T14:38:04.505Z,125
2018-02-22T14:39:13.700Z,125
2018-02-22T14:40:23.425Z,125
2018-02-22T14:41:33.158Z,125
2018-02-22T14:42:42.910Z,125
2018-02-22T14:43:52.637Z,125
2018-02-22T14:45:02.659Z,120
2018-02-22T14:46:12.725Z,120
2018-02-22T14:47:22.751Z,120
2018-02-22T14:48:32.478Z,120
2018-02-22T14:49:42.220Z,120
2018-02-22T14:50:51.995Z,120
2018-02-22T14:52:01.458Z,115
2018-02-22T14:53:11.182Z,115
2018-02-22T14:54:20.914Z,115
2018-02-22T14:55:30.635Z,115
2018-02-22T14:56:40.368Z,115
2018-02-22T14:57:50.175Z,115
2018-02-22T14:58:59.934Z,110
2018-02-22T15:00:09.127Z,110
2018-02-22T15:01:18.585Z,110
2018-02-22T15:02:28.707Z,110
2018-02-22T15:03:38.511Z,110
2018-02-22T15:04:47.967Z,110
2018-02-22T15:05:57.694Z,110
2018-02-22T15:07:07.694Z,110
2018-02-22T15:08:17.525Z,110
2018-02-22T15:09:26.995Z,105
2018-02-22T15:10:36.474Z,105
2018-02-22T15:11:45.660Z,105
2018-02-22T15:12:55.385Z,100
2018-02-22T15:14:04.859Z,105
2018-02-22T15:15:14.591Z,100
2018-02-22T15:16:24.350Z,100
2018-02-22T15:17:33.550Z,100
2018-02-22T15:18:43.550Z,100
2018-02-22T15:19:53.537Z,100
2018-02-22T15:21:03.568Z,100
2018-02-22T15:22:13.084Z,95
2018-02-22T15:23:23.139Z,95
2018-02-22T15:24:32.865Z,95
2018-02-22T15:25:42.597Z,90
2018-02-22T15:26:52.322Z,95
2018-02-22T15:28:01.780Z,95
2018-02-22T15:29:11.804Z,95
2018-02-22T15:30:21.278Z,90
2018-02-22T15:31:30.837Z,90
2018-02-22T15:32:40.562Z,90
2018-02-22T15:33:50.659Z,90
2018-02-22T15:35:00.379Z,85
2018-02-22T15:36:10.159Z,90
2018-02-22T15:37:19.913Z,80
2018-02-22T15:38:29.645Z,80
2018-02-22T15:39:39.808Z,80
2018-02-22T15:40:49.267Z,80
2018-02-22T15:41:59.283Z,80
2018-02-22T15:43:08.757Z,75
2018-02-22T15:44:18.497Z,75
2018-02-22T15:45:28.303Z,75
2018-02-22T15:46:38.027Z,75
2018-02-22T15:47:47.490Z,75
2018-02-22T15:48:57.219Z,70
2018-02-22T15:50:07.231Z,70
2018-02-22T15:51:16.983Z,70
2018-02-22T15:52:26.208Z,70
2018-02-22T15:53:36.204Z,55
2018-02-22T15:54:45.935Z,75
2018-02-22T15:55:55.659Z,70
2018-02-22T15:57:05.140Z,70
2018-02-22T15:58:15.120Z,70
2018-02-22T15:59:25.103Z,70
2018-02-22T16:00:35.105Z,65
2018-02-22T16:01:44.296Z,60
2018-02-22T16:02:54.013Z,60
2018-02-22T16:04:03.888Z,55
2018-02-22T16:05:13.367Z,60
2018-02-22T16:06:22.825Z,55
2018-02-22T16:07:32.554Z,50
2018-02-22T16:08:42.562Z,50
2018-02-22T16:09:52.287Z,50
2018-02-22T16:11:02.011Z,45
2018-02-22T16:12:12.046Z,45
2018-02-22T16:13:21.773Z,45
2018-02-22T16:14:31.768Z,45
2018-02-22T16:15:41.783Z,40
2018-02-22T16:16:51.270Z,35
2018-02-22T16:18:00.995Z,30
2018-02-22T16:19:10.454Z,30
2018-02-22T16:20:20.179Z,30
2018-02-22T16:21:30.225Z,30
2018-02-22T16:22:39.961Z,25
2018-02-22T16:23:49.996Z,25
2018-02-22T16:24:59.500Z,25
2018-02-22T16:26:08.972Z,25
2018-02-22T16:27:18.497Z,25
2018-02-22T16:28:28.213Z,25
2018-02-22T16:29:37.670Z,20
2018-02-22T16:30:47.447Z,20
2018-02-22T16:31:57.217Z,20
2018-02-22T16:33:06.700Z,20
2018-02-22T16:34:16.804Z,20
2018-02-22T16:35:26.276Z,20
2018-02-22T16:36:36.038Z,20
2018-02-22T16:37:45.767Z,15